sensor_id;sensor_type;location;lat;lon;timestamp;temperature;humidity
29403;DHT22;16382;59.942;30.472;2022-11-12T00:00:12;11.90;99.90
29403;DHT22;16382;59.942;30.472;2022-11-12T00:03:01;12.00;99.90
29403;DHT22;16382;59.942;30.472;2022-11-12T00:05:47;12.00;99.90
29403;DHT22;16382;59.942;30.472;2022-11-12T00:08:34;12.00;99.90
29403;DHT22;16382;59.942;30.472;2022-11-12T00:11:20;12.00;99.90
29403;DHT22;16382;59.942;30.472;2022-11-12T00:14:06;12.00;99.90
29403;DHT22;16382;59.942;30.472;2022-11-12T00:16:52;12.00;99.90
29403;DHT22;16382;59.942;30.472;2022-11-12T00:19:39;12.00;99.90
29403;DHT22;16382;59.942;30.472;2022-11-12T00:22:25;12.10;99.90
29403;DHT22;16382;59.942;30.472;2022-11-12T00:25:11;12.10;99.90
29403;DHT22;16382;59.942;30.472;2022-11-12T00:28:00;12.10;99.90
29403;DHT22;16382;59.942;30.472;2022-11-12T00:30:47;12.10;99.90
29403;DHT22;16382;59.942;30.472;2022-11-12T00:33:33;12.10;99.90
29403;DHT22;16382;59.942;30.472;2022-11-12T00:36:20;12.10;99.90
29403;DHT22;16382;59.942;30.472;2022-11-12T00:39:06;12.20;99.90
29403;DHT22;16382;59.942;30.472;2022-11-12T00:41:52;12.20;99.90
29403;DHT22;16382;59.942;30.472;2022-11-12T00:44:38;12.30;99.90
29403;DHT22;16382;59.942;30.472;2022-11-12T00:47:24;12.30;99.90
29403;DHT22;16382;59.942;30.472;2022-11-12T00:50:10;12.40;99.90
29403;DHT22;16382;59.942;30.472;2022-11-12T00:52:57;12.40;99.90
29403;DHT22;16382;59.942;30.472;2022-11-12T00:55:43;12.40;99.90
29403;DHT22;16382;59.942;30.472;2022-11-12T00:58:29;12.50;99.90
29403;DHT22;16382;59.942;30.472;2022-11-12T01:01:16;12.50;99.90
29403;DHT22;16382;59.942;30.472;2022-11-12T01:04:03;12.40;99.90
29403;DHT22;16382;59.942;30.472;2022-11-12T01:06:49;12.50;99.90
29403;DHT22;16382;59.942;30.472;2022-11-12T01:09:36;12.50;99.90
29403;DHT22;16382;59.942;30.472;2022-11-12T01:12:23;12.50;99.90
29403;DHT22;16382;59.942;30.472;2022-11-12T01:15:09;12.40;99.90
29403;DHT22;16382;59.942;30.472;2022-11-12T01:17:55;12.40;99.90
29403;DHT22;16382;59.942;30.472;2022-11-12T01:20:41;12.40;99.90
29403;DHT22;16382;59.942;30.472;2022-11-12T01:23:27;12.40;99.90
29403;DHT22;16382;59.942;30.472;2022-11-12T01:26:17;12.40;99.90
29403;DHT22;16382;59.942;30.472;2022-11-12T01:29:06;12.40;99.90
29403;DHT22;16382;59.942;30.472;2022-11-12T01:31:52;12.40;99.90
29403;DHT22;16382;59.942;30.472;2022-11-12T01:34:38;12.30;99.90
29403;DHT22;16382;59.942;30.472;2022-11-12T01:37:24;12.30;99.90
29403;DHT22;16382;59.942;30.472;2022-11-12T01:40:10;12.30;99.90
29403;DHT22;16382;59.942;30.472;2022-11-12T01:42:57;12.30;99.90
29403;DHT22;16382;59.942;30.472;2022-11-12T01:45:46;12.40;99.90
29403;DHT22;16382;59.942;30.472;2022-11-12T01:48:35;12.40;99.90
29403;DHT22;16382;59.942;30.472;2022-11-12T01:51:28;12.40;99.90
29403;DHT22;16382;59.942;30.472;2022-11-12T01:54:19;12.40;99.90
29403;DHT22;16382;59.942;30.472;2022-11-12T01:57:06;12.40;99.90
29403;DHT22;16382;59.942;30.472;2022-11-12T01:59:59;12.50;99.90
29403;DHT22;16382;59.942;30.472;2022-11-12T02:02:52;12.50;99.90
29403;DHT22;16382;59.942;30.472;2022-11-12T02:05:40;12.50;99.90
29403;DHT22;16382;59.942;30.472;2022-11-12T02:08:28;12.50;99.90
29403;DHT22;16382;59.942;30.472;2022-11-12T02:11:16;12.50;99.90
29403;DHT22;16382;59.942;30.472;2022-11-12T02:14:03;12.50;99.90
29403;DHT22;16382;59.942;30.472;2022-11-12T02:16:49;12.50;99.90
29403;DHT22;16382;59.942;30.472;2022-11-12T02:19:36;12.50;99.90
29403;DHT22;16382;59.942;30.472;2022-11-12T02:22:23;12.60;99.90
29403;DHT22;16382;59.942;30.472;2022-11-12T02:25:12;12.50;99.90
29403;DHT22;16382;59.942;30.472;2022-11-12T02:28:00;12.50;99.90
29403;DHT22;16382;59.942;30.472;2022-11-12T02:30:48;12.50;99.90
29403;DHT22;16382;59.942;30.472;2022-11-12T02:33:35;12.40;99.90
29403;DHT22;16382;59.942;30.472;2022-11-12T02:36:21;12.40;99.90
29403;DHT22;16382;59.942;30.472;2022-11-12T02:39:08;12.40;99.90
29403;DHT22;16382;59.942;30.472;2022-11-12T02:41:54;12.40;99.90
29403;DHT22;16382;59.942;30.472;2022-11-12T02:44:40;12.40;99.90
29403;DHT22;16382;59.942;30.472;2022-11-12T02:47:26;12.40;99.90
29403;DHT22;16382;59.942;30.472;2022-11-12T02:50:13;12.30;99.90
29403;DHT22;16382;59.942;30.472;2022-11-12T02:53:00;12.30;99.90
29403;DHT22;16382;59.942;30.472;2022-11-12T02:55:46;12.30;99.90
29403;DHT22;16382;59.942;30.472;2022-11-12T02:58:32;12.30;99.90
29403;DHT22;16382;59.942;30.472;2022-11-12T03:01:18;12.30;99.90
29403;DHT22;16382;59.942;30.472;2022-11-12T03:04:04;12.30;99.90
29403;DHT22;16382;59.942;30.472;2022-11-12T03:06:50;12.30;99.90
29403;DHT22;16382;59.942;30.472;2022-11-12T03:09:36;12.30;99.90
29403;DHT22;16382;59.942;30.472;2022-11-12T03:12:23;12.30;99.90
29403;DHT22;16382;59.942;30.472;2022-11-12T03:15:09;12.30;99.90
29403;DHT22;16382;59.942;30.472;2022-11-12T03:17:56;12.30;99.90
29403;DHT22;16382;59.942;30.472;2022-11-12T03:20:42;12.30;99.90
29403;DHT22;16382;59.942;30.472;2022-11-12T03:23:29;12.30;99.90
29403;DHT22;16382;59.942;30.472;2022-11-12T03:26:15;12.30;99.90
29403;DHT22;16382;59.942;30.472;2022-11-12T03:29:03;12.30;99.90
29403;DHT22;16382;59.942;30.472;2022-11-12T03:31:49;12.30;99.90
29403;DHT22;16382;59.942;30.472;2022-11-12T03:34:35;12.20;99.90
29403;DHT22;16382;59.942;30.472;2022-11-12T03:37:21;12.20;99.90
29403;DHT22;16382;59.942;30.472;2022-11-12T03:40:08;12.10;99.90
29403;DHT22;16382;59.942;30.472;2022-11-12T03:42:54;12.20;99.90
29403;DHT22;16382;59.942;30.472;2022-11-12T03:45:41;12.20;99.90
29403;DHT22;16382;59.942;30.472;2022-11-12T03:48:28;12.20;99.90
29403;DHT22;16382;59.942;30.472;2022-11-12T03:51:14;12.10;99.90
29403;DHT22;16382;59.942;30.472;2022-11-12T03:54:02;12.10;99.90
29403;DHT22;16382;59.942;30.472;2022-11-12T03:56:48;12.10;99.90
29403;DHT22;16382;59.942;30.472;2022-11-12T03:59:34;12.10;99.90
29403;DHT22;16382;59.942;30.472;2022-11-12T04:02:21;12.10;99.90
29403;DHT22;16382;59.942;30.472;2022-11-12T04:05:10;12.10;99.90
29403;DHT22;16382;59.942;30.472;2022-11-12T04:08:15;12.20;99.90
29403;DHT22;16382;59.942;30.472;2022-11-12T04:11:21;12.20;99.90
29403;DHT22;16382;59.942;30.472;2022-11-12T04:14:07;12.20;99.90
29403;DHT22;16382;59.942;30.472;2022-11-12T04:16:52;12.20;99.90
29403;DHT22;16382;59.942;30.472;2022-11-12T04:19:58;12.30;99.90
29403;DHT22;16382;59.942;30.472;2022-11-12T04:23:02;12.30;99.90
29403;DHT22;16382;59.942;30.472;2022-11-12T04:25:52;12.30;99.90
29403;DHT22;16382;59.942;30.472;2022-11-12T04:28:55;12.30;99.90
29403;DHT22;16382;59.942;30.472;2022-11-12T04:31:59;12.20;99.90
29403;DHT22;16382;59.942;30.472;2022-11-12T04:34:45;12.20;99.90
29403;DHT22;16382;59.942;30.472;2022-11-12T04:37:33;12.20;99.90
29403;DHT22;16382;59.942;30.472;2022-11-12T04:40:28;12.20;99.90
29403;DHT22;16382;59.942;30.472;2022-11-12T04:43:32;12.30;99.90
29403;DHT22;16382;59.942;30.472;2022-11-12T04:46:35;12.30;99.90
29403;DHT22;16382;59.942;30.472;2022-11-12T04:49:21;12.30;99.90
29403;DHT22;16382;59.942;30.472;2022-11-12T04:52:08;12.30;99.90
29403;DHT22;16382;59.942;30.472;2022-11-12T04:54:55;12.30;99.90
29403;DHT22;16382;59.942;30.472;2022-11-12T04:57:44;12.30;99.90
29403;DHT22;16382;59.942;30.472;2022-11-12T05:00:31;12.20;99.90
29403;DHT22;16382;59.942;30.472;2022-11-12T05:03:17;12.20;99.90
29403;DHT22;16382;59.942;30.472;2022-11-12T05:06:05;12.20;99.90
29403;DHT22;16382;59.942;30.472;2022-11-12T05:09:12;12.20;99.90
29403;DHT22;16382;59.942;30.472;2022-11-12T05:11:59;12.20;99.90
29403;DHT22;16382;59.942;30.472;2022-11-12T05:14:45;12.20;99.90
29403;DHT22;16382;59.942;30.472;2022-11-12T05:17:32;12.30;99.90
29403;DHT22;16382;59.942;30.472;2022-11-12T05:20:18;12.30;99.90
29403;DHT22;16382;59.942;30.472;2022-11-12T05:23:04;12.20;99.90
29403;DHT22;16382;59.942;30.472;2022-11-12T05:25:50;12.30;99.90
29403;DHT22;16382;59.942;30.472;2022-11-12T05:28:38;12.30;99.90
29403;DHT22;16382;59.942;30.472;2022-11-12T05:31:24;12.20;99.90
29403;DHT22;16382;59.942;30.472;2022-11-12T05:34:11;12.20;99.90
29403;DHT22;16382;59.942;30.472;2022-11-12T05:36:57;12.10;99.90
29403;DHT22;16382;59.942;30.472;2022-11-12T05:39:43;12.20;99.90
29403;DHT22;16382;59.942;30.472;2022-11-12T05:42:30;12.10;99.90
29403;DHT22;16382;59.942;30.472;2022-11-12T05:45:17;12.20;99.90
29403;DHT22;16382;59.942;30.472;2022-11-12T05:48:03;12.20;99.90
29403;DHT22;16382;59.942;30.472;2022-11-12T05:50:49;12.20;99.90
29403;DHT22;16382;59.942;30.472;2022-11-12T05:53:37;12.10;99.90
29403;DHT22;16382;59.942;30.472;2022-11-12T05:56:23;12.10;99.90
29403;DHT22;16382;59.942;30.472;2022-11-12T05:59:11;12.10;99.90
29403;DHT22;16382;59.942;30.472;2022-11-12T06:01:59;12.10;99.90
29403;DHT22;16382;59.942;30.472;2022-11-12T06:04:45;12.10;99.90
29403;DHT22;16382;59.942;30.472;2022-11-12T06:07:33;12.10;99.90
29403;DHT22;16382;59.942;30.472;2022-11-12T06:10:21;12.10;99.90
29403;DHT22;16382;59.942;30.472;2022-11-12T06:13:07;12.00;99.90
29403;DHT22;16382;59.942;30.472;2022-11-12T06:15:54;12.10;99.90
29403;DHT22;16382;59.942;30.472;2022-11-12T06:18:42;12.00;99.90
29403;DHT22;16382;59.942;30.472;2022-11-12T06:21:27;12.10;99.90
29403;DHT22;16382;59.942;30.472;2022-11-12T06:24:14;12.10;99.90
29403;DHT22;16382;59.942;30.472;2022-11-12T06:27:03;12.10;99.90
29403;DHT22;16382;59.942;30.472;2022-11-12T06:29:56;12.10;99.90
29403;DHT22;16382;59.942;30.472;2022-11-12T06:32:45;12.00;99.90
29403;DHT22;16382;59.942;30.472;2022-11-12T06:35:32;11.90;99.90
29403;DHT22;16382;59.942;30.472;2022-11-12T06:38:19;11.90;99.90
29403;DHT22;16382;59.942;30.472;2022-11-12T06:41:07;11.80;99.90
29403;DHT22;16382;59.942;30.472;2022-11-12T06:43:57;11.80;99.90
29403;DHT22;16382;59.942;30.472;2022-11-12T06:46:43;11.80;99.90
29403;DHT22;16382;59.942;30.472;2022-11-12T06:49:28;11.80;99.90
29403;DHT22;16382;59.942;30.472;2022-11-12T06:52:16;11.80;99.90
29403;DHT22;16382;59.942;30.472;2022-11-12T06:55:02;11.90;99.90
29403;DHT22;16382;59.942;30.472;2022-11-12T06:57:50;11.90;99.90
29403;DHT22;16382;59.942;30.472;2022-11-12T07:00:37;11.90;99.90
29403;DHT22;16382;59.942;30.472;2022-11-12T07:03:23;11.90;99.90
29403;DHT22;16382;59.942;30.472;2022-11-12T07:06:11;12.00;99.90
29403;DHT22;16382;59.942;30.472;2022-11-12T07:08:59;12.00;99.90
29403;DHT22;16382;59.942;30.472;2022-11-12T07:11:45;11.90;99.90
29403;DHT22;16382;59.942;30.472;2022-11-12T07:14:30;12.00;99.90
29403;DHT22;16382;59.942;30.472;2022-11-12T07:17:16;12.00;99.90
29403;DHT22;16382;59.942;30.472;2022-11-12T07:20:02;12.00;99.90
29403;DHT22;16382;59.942;30.472;2022-11-12T07:22:49;12.00;99.90
29403;DHT22;16382;59.942;30.472;2022-11-12T07:25:36;12.10;99.90
29403;DHT22;16382;59.942;30.472;2022-11-12T07:28:22;12.00;99.90
29403;DHT22;16382;59.942;30.472;2022-11-12T07:31:11;12.10;99.90
29403;DHT22;16382;59.942;30.472;2022-11-12T07:33:57;12.10;99.90
29403;DHT22;16382;59.942;30.472;2022-11-12T07:36:47;12.10;99.90
29403;DHT22;16382;59.942;30.472;2022-11-12T07:39:34;12.10;99.90
29403;DHT22;16382;59.942;30.472;2022-11-12T07:42:26;12.10;99.90
29403;DHT22;16382;59.942;30.472;2022-11-12T07:45:12;12.10;99.90
29403;DHT22;16382;59.942;30.472;2022-11-12T07:47:58;12.20;99.90
29403;DHT22;16382;59.942;30.472;2022-11-12T07:50:44;12.20;99.90
29403;DHT22;16382;59.942;30.472;2022-11-12T07:53:31;12.20;99.90
29403;DHT22;16382;59.942;30.472;2022-11-12T07:56:18;12.20;99.90
29403;DHT22;16382;59.942;30.472;2022-11-12T07:59:08;12.30;99.90
29403;DHT22;16382;59.942;30.472;2022-11-12T08:01:54;12.30;99.90
29403;DHT22;16382;59.942;30.472;2022-11-12T08:04:40;12.20;99.90
29403;DHT22;16382;59.942;30.472;2022-11-12T08:07:26;12.20;99.90
29403;DHT22;16382;59.942;30.472;2022-11-12T08:10:12;12.30;99.90
29403;DHT22;16382;59.942;30.472;2022-11-12T08:12:58;12.30;99.90
29403;DHT22;16382;59.942;30.472;2022-11-12T08:15:46;12.30;99.90
29403;DHT22;16382;59.942;30.472;2022-11-12T08:18:32;12.30;99.90
29403;DHT22;16382;59.942;30.472;2022-11-12T08:21:19;12.30;99.90
29403;DHT22;16382;59.942;30.472;2022-11-12T08:24:06;12.30;99.90
29403;DHT22;16382;59.942;30.472;2022-11-12T08:26:52;12.30;99.90
29403;DHT22;16382;59.942;30.472;2022-11-12T08:29:42;12.30;99.90
29403;DHT22;16382;59.942;30.472;2022-11-12T08:32:31;12.30;99.90
29403;DHT22;16382;59.942;30.472;2022-11-12T08:35:17;12.30;99.90
29403;DHT22;16382;59.942;30.472;2022-11-12T08:38:04;12.30;99.90
29403;DHT22;16382;59.942;30.472;2022-11-12T08:40:51;12.30;99.90
29403;DHT22;16382;59.942;30.472;2022-11-12T08:43:37;12.30;99.90
29403;DHT22;16382;59.942;30.472;2022-11-12T08:46:24;12.30;99.90
29403;DHT22;16382;59.942;30.472;2022-11-12T08:49:12;12.30;99.90
29403;DHT22;16382;59.942;30.472;2022-11-12T08:51:58;12.40;99.90
29403;DHT22;16382;59.942;30.472;2022-11-12T08:54:44;12.40;99.90
29403;DHT22;16382;59.942;30.472;2022-11-12T08:57:31;12.40;99.90
29403;DHT22;16382;59.942;30.472;2022-11-12T09:00:17;12.40;99.90
29403;DHT22;16382;59.942;30.472;2022-11-12T09:03:05;12.40;99.90
29403;DHT22;16382;59.942;30.472;2022-11-12T09:05:54;12.50;99.90
29403;DHT22;16382;59.942;30.472;2022-11-12T09:08:39;12.50;99.90
29403;DHT22;16382;59.942;30.472;2022-11-12T09:11:26;12.50;99.90
29403;DHT22;16382;59.942;30.472;2022-11-12T09:14:12;12.50;99.90
29403;DHT22;16382;59.942;30.472;2022-11-12T09:16:58;12.50;99.90
29403;DHT22;16382;59.942;30.472;2022-11-12T09:19:44;12.50;99.90
29403;DHT22;16382;59.942;30.472;2022-11-12T09:22:31;12.40;99.90
29403;DHT22;16382;59.942;30.472;2022-11-12T09:25:17;12.40;99.90
29403;DHT22;16382;59.942;30.472;2022-11-12T09:28:08;12.40;99.90
29403;DHT22;16382;59.942;30.472;2022-11-12T09:30:55;12.40;99.90
29403;DHT22;16382;59.942;30.472;2022-11-12T09:33:41;12.40;99.90
29403;DHT22;16382;59.942;30.472;2022-11-12T09:36:27;12.40;99.90
29403;DHT22;16382;59.942;30.472;2022-11-12T09:39:14;12.40;99.90
29403;DHT22;16382;59.942;30.472;2022-11-12T09:42:05;12.40;99.90
29403;DHT22;16382;59.942;30.472;2022-11-12T09:44:56;12.40;99.90
29403;DHT22;16382;59.942;30.472;2022-11-12T09:47:49;12.50;99.90
29403;DHT22;16382;59.942;30.472;2022-11-12T09:50:41;12.50;99.90
29403;DHT22;16382;59.942;30.472;2022-11-12T09:53:39;12.50;99.90
29403;DHT22;16382;59.942;30.472;2022-11-12T09:56:31;12.50;99.90
29403;DHT22;16382;59.942;30.472;2022-11-12T09:59:18;12.50;99.90
29403;DHT22;16382;59.942;30.472;2022-11-12T10:02:20;12.50;99.90
29403;DHT22;16382;59.942;30.472;2022-11-12T10:05:20;12.50;99.90
29403;DHT22;16382;59.942;30.472;2022-11-12T10:08:24;12.40;99.90
29403;DHT22;16382;59.942;30.472;2022-11-12T10:15:28;12.40;99.90
29403;DHT22;16382;59.942;30.472;2022-11-12T10:19:06;12.40;99.90
29403;DHT22;16382;59.942;30.472;2022-11-12T10:22:18;12.60;99.90
29403;DHT22;16382;59.942;30.472;2022-11-12T10:25:13;12.80;99.90
29403;DHT22;16382;59.942;30.472;2022-11-12T10:28:15;12.90;99.90
29403;DHT22;16382;59.942;30.472;2022-11-12T10:31:11;13.40;99.90
29403;DHT22;16382;59.942;30.472;2022-11-12T10:34:14;14.00;99.90
29403;DHT22;16382;59.942;30.472;2022-11-12T10:37:05;14.40;99.90
29403;DHT22;16382;59.942;30.472;2022-11-12T10:39:52;14.50;99.90
29403;DHT22;16382;59.942;30.472;2022-11-12T10:42:55;14.40;99.90
29403;DHT22;16382;59.942;30.472;2022-11-12T10:45:45;14.10;99.90
29403;DHT22;16382;59.942;30.472;2022-11-12T10:48:32;13.80;99.90
29403;DHT22;16382;59.942;30.472;2022-11-12T10:51:22;13.50;99.90
29403;DHT22;16382;59.942;30.472;2022-11-12T10:54:28;13.20;99.90
29403;DHT22;16382;59.942;30.472;2022-11-12T10:57:20;13.00;99.90
29403;DHT22;16382;59.942;30.472;2022-11-12T11:00:14;12.90;99.90
29403;DHT22;16382;59.942;30.472;2022-11-12T11:03:09;12.80;99.90
29403;DHT22;16382;59.942;30.472;2022-11-12T11:06:02;12.80;99.90
29403;DHT22;16382;59.942;30.472;2022-11-12T11:08:51;12.70;99.90
29403;DHT22;16382;59.942;30.472;2022-11-12T11:11:48;12.60;99.90
29403;DHT22;16382;59.942;30.472;2022-11-12T11:14:35;13.50;99.90
29403;DHT22;16382;59.942;30.472;2022-11-12T11:17:23;14.70;99.90
29403;DHT22;16382;59.942;30.472;2022-11-12T11:20:25;16.20;99.90
29403;DHT22;16382;59.942;30.472;2022-11-12T11:23:19;17.50;99.90
29403;DHT22;16382;59.942;30.472;2022-11-12T11:26:18;18.40;99.90
29403;DHT22;16382;59.942;30.472;2022-11-12T11:29:39;18.90;99.90
29403;DHT22;16382;59.942;30.472;2022-11-12T11:36:01;19.20;99.90
29403;DHT22;16382;59.942;30.472;2022-11-12T11:39:00;19.60;99.90
29403;DHT22;16382;59.942;30.472;2022-11-12T11:41:55;19.90;99.90
29403;DHT22;16382;59.942;30.472;2022-11-12T11:44:57;19.70;99.90
29403;DHT22;16382;59.942;30.472;2022-11-12T11:47:53;19.20;99.90
29403;DHT22;16382;59.942;30.472;2022-11-12T11:50:42;18.70;99.90
29403;DHT22;16382;59.942;30.472;2022-11-12T11:53:40;18.50;99.90
29403;DHT22;16382;59.942;30.472;2022-11-12T11:56:37;18.10;99.90
29403;DHT22;16382;59.942;30.472;2022-11-12T11:59:36;17.80;99.90
29403;DHT22;16382;59.942;30.472;2022-11-12T12:03:01;16.90;99.90
29403;DHT22;16382;59.942;30.472;2022-11-12T12:06:08;15.70;99.90
29403;DHT22;16382;59.942;30.472;2022-11-12T12:09:17;15.10;99.90
29403;DHT22;16382;59.942;30.472;2022-11-12T12:12:20;15.40;99.90
29403;DHT22;16382;59.942;30.472;2022-11-12T12:15:28;16.00;99.90
29403;DHT22;16382;59.942;30.472;2022-11-12T12:18:28;15.90;99.90
29403;DHT22;16382;59.942;30.472;2022-11-12T12:21:20;15.40;99.90
29403;DHT22;16382;59.942;30.472;2022-11-12T12:24:16;14.80;99.90
29403;DHT22;16382;59.942;30.472;2022-11-12T12:27:14;14.20;99.90
29403;DHT22;16382;59.942;30.472;2022-11-12T12:30:08;13.40;99.90
29403;DHT22;16382;59.942;30.472;2022-11-12T12:33:06;12.90;99.90
29403;DHT22;16382;59.942;30.472;2022-11-12T12:36:02;12.50;99.90
29403;DHT22;16382;59.942;30.472;2022-11-12T12:38:54;12.30;99.90
29403;DHT22;16382;59.942;30.472;2022-11-12T12:42:00;12.10;99.90
29403;DHT22;16382;59.942;30.472;2022-11-12T12:44:52;12.00;99.90
29403;DHT22;16382;59.942;30.472;2022-11-12T12:47:49;11.90;99.90
29403;DHT22;16382;59.942;30.472;2022-11-12T12:50:38;11.80;99.90
29403;DHT22;16382;59.942;30.472;2022-11-12T12:53:35;11.70;99.90
29403;DHT22;16382;59.942;30.472;2022-11-12T12:56:41;11.60;99.90
29403;DHT22;16382;59.942;30.472;2022-11-12T12:59:31;11.50;99.90
29403;DHT22;16382;59.942;30.472;2022-11-12T13:02:22;11.40;99.90
29403;DHT22;16382;59.942;30.472;2022-11-12T13:05:26;11.30;99.90
29403;DHT22;16382;59.942;30.472;2022-11-12T13:08:19;11.30;99.90
29403;DHT22;16382;59.942;30.472;2022-11-12T13:11:48;11.20;99.90
29403;DHT22;16382;59.942;30.472;2022-11-12T13:15:19;11.20;99.90
29403;DHT22;16382;59.942;30.472;2022-11-12T13:18:55;11.10;99.90
29403;DHT22;16382;59.942;30.472;2022-11-12T13:25:26;10.90;99.90
29403;DHT22;16382;59.942;30.472;2022-11-12T13:28:14;10.80;99.90
29403;DHT22;16382;59.942;30.472;2022-11-12T13:31:03;10.80;99.90
29403;DHT22;16382;59.942;30.472;2022-11-12T13:33:49;10.70;99.90
29403;DHT22;16382;59.942;30.472;2022-11-12T13:36:35;10.70;99.90
29403;DHT22;16382;59.942;30.472;2022-11-12T13:39:21;10.70;99.90
29403;DHT22;16382;59.942;30.472;2022-11-12T13:42:12;10.60;99.90
29403;DHT22;16382;59.942;30.472;2022-11-12T13:45:19;10.60;99.90
29403;DHT22;16382;59.942;30.472;2022-11-12T13:48:12;10.50;99.90
29403;DHT22;16382;59.942;30.472;2022-11-12T13:51:05;10.50;99.90
29403;DHT22;16382;59.942;30.472;2022-11-12T13:54:00;10.50;99.90
29403;DHT22;16382;59.942;30.472;2022-11-12T13:56:47;10.50;99.90
29403;DHT22;16382;59.942;30.472;2022-11-12T13:59:33;10.40;99.90
29403;DHT22;16382;59.942;30.472;2022-11-12T14:02:22;10.40;99.90
29403;DHT22;16382;59.942;30.472;2022-11-12T14:05:23;10.40;99.90
29403;DHT22;16382;59.942;30.472;2022-11-12T14:08:45;10.40;99.90
29403;DHT22;16382;59.942;30.472;2022-11-12T14:11:57;10.40;99.90
29403;DHT22;16382;59.942;30.472;2022-11-12T14:15:07;10.30;99.90
29403;DHT22;16382;59.942;30.472;2022-11-12T14:18:13;10.30;99.90
29403;DHT22;16382;59.942;30.472;2022-11-12T14:21:05;10.20;99.90
29403;DHT22;16382;59.942;30.472;2022-11-12T14:23:56;10.20;99.90
29403;DHT22;16382;59.942;30.472;2022-11-12T14:26:42;10.20;99.90
29403;DHT22;16382;59.942;30.472;2022-11-12T14:29:28;10.20;99.90
29403;DHT22;16382;59.942;30.472;2022-11-12T14:32:22;10.20;99.90
29403;DHT22;16382;59.942;30.472;2022-11-12T14:35:26;10.10;99.90
29403;DHT22;16382;59.942;30.472;2022-11-12T14:38:26;10.10;99.90
29403;DHT22;16382;59.942;30.472;2022-11-12T14:41:19;10.10;99.90
29403;DHT22;16382;59.942;30.472;2022-11-12T14:44:09;10.00;99.90
29403;DHT22;16382;59.942;30.472;2022-11-12T14:47:02;10.00;99.90
29403;DHT22;16382;59.942;30.472;2022-11-12T14:49:50;10.00;99.90
29403;DHT22;16382;59.942;30.472;2022-11-12T14:52:41;10.00;99.90
29403;DHT22;16382;59.942;30.472;2022-11-12T14:55:33;10.00;99.90
29403;DHT22;16382;59.942;30.472;2022-11-12T14:58:22;10.00;99.90
29403;DHT22;16382;59.942;30.472;2022-11-12T15:01:18;10.00;99.90
29403;DHT22;16382;59.942;30.472;2022-11-12T15:04:18;10.00;99.90
29403;DHT22;16382;59.942;30.472;2022-11-12T15:07:05;10.10;99.90
29403;DHT22;16382;59.942;30.472;2022-11-12T15:09:51;10.10;99.90
29403;DHT22;16382;59.942;30.472;2022-11-12T15:12:41;10.10;99.90
29403;DHT22;16382;59.942;30.472;2022-11-12T15:15:27;10.00;99.90
29403;DHT22;16382;59.942;30.472;2022-11-12T15:18:17;10.10;99.90
29403;DHT22;16382;59.942;30.472;2022-11-12T15:21:11;10.10;99.90
29403;DHT22;16382;59.942;30.472;2022-11-12T15:24:05;10.10;99.90
29403;DHT22;16382;59.942;30.472;2022-11-12T15:26:52;10.20;99.90
29403;DHT22;16382;59.942;30.472;2022-11-12T15:29:42;10.20;99.90
29403;DHT22;16382;59.942;30.472;2022-11-12T15:32:32;10.20;99.90
29403;DHT22;16382;59.942;30.472;2022-11-12T15:35:33;10.20;99.90
29403;DHT22;16382;59.942;30.472;2022-11-12T15:38:24;10.20;99.90
29403;DHT22;16382;59.942;30.472;2022-11-12T15:41:21;10.30;99.90
29403;DHT22;16382;59.942;30.472;2022-11-12T15:44:09;10.30;99.90
29403;DHT22;16382;59.942;30.472;2022-11-12T15:46:57;10.20;99.90
29403;DHT22;16382;59.942;30.472;2022-11-12T15:49:50;10.20;99.90
29403;DHT22;16382;59.942;30.472;2022-11-12T15:52:38;10.20;99.90
29403;DHT22;16382;59.942;30.472;2022-11-12T15:55:24;10.20;99.90
29403;DHT22;16382;59.942;30.472;2022-11-12T15:58:15;10.10;99.90
29403;DHT22;16382;59.942;30.472;2022-11-12T16:01:03;10.10;99.90
29403;DHT22;16382;59.942;30.472;2022-11-12T16:03:54;10.00;99.90
29403;DHT22;16382;59.942;30.472;2022-11-12T16:06:40;10.00;99.90
29403;DHT22;16382;59.942;30.472;2022-11-12T16:09:26;10.00;99.90
29403;DHT22;16382;59.942;30.472;2022-11-12T16:12:14;10.00;99.90
29403;DHT22;16382;59.942;30.472;2022-11-12T16:15:00;9.90;99.90
29403;DHT22;16382;59.942;30.472;2022-11-12T16:17:47;9.90;99.90
29403;DHT22;16382;59.942;30.472;2022-11-12T16:20:35;9.90;99.90
29403;DHT22;16382;59.942;30.472;2022-11-12T16:23:22;9.90;99.90
29403;DHT22;16382;59.942;30.472;2022-11-12T16:26:10;9.90;99.90
29403;DHT22;16382;59.942;30.472;2022-11-12T16:29:02;10.00;99.90
29403;DHT22;16382;59.942;30.472;2022-11-12T16:31:49;10.00;99.90
29403;DHT22;16382;59.942;30.472;2022-11-12T16:34:35;10.10;99.90
29403;DHT22;16382;59.942;30.472;2022-11-12T16:37:23;10.10;99.90
29403;DHT22;16382;59.942;30.472;2022-11-12T16:40:15;10.10;99.90
29403;DHT22;16382;59.942;30.472;2022-11-12T16:43:02;10.10;99.90
29403;DHT22;16382;59.942;30.472;2022-11-12T16:45:54;10.10;99.90
29403;DHT22;16382;59.942;30.472;2022-11-12T16:48:40;10.00;99.90
29403;DHT22;16382;59.942;30.472;2022-11-12T16:51:26;10.00;99.90
29403;DHT22;16382;59.942;30.472;2022-11-12T16:54:16;10.00;99.90
29403;DHT22;16382;59.942;30.472;2022-11-12T16:57:02;10.00;99.90
29403;DHT22;16382;59.942;30.472;2022-11-12T16:59:48;10.10;99.90
29403;DHT22;16382;59.942;30.472;2022-11-12T17:02:35;10.10;99.90
29403;DHT22;16382;59.942;30.472;2022-11-12T17:05:23;10.10;99.90
29403;DHT22;16382;59.942;30.472;2022-11-12T17:08:10;10.10;99.90
29403;DHT22;16382;59.942;30.472;2022-11-12T17:11:05;10.10;99.90
29403;DHT22;16382;59.942;30.472;2022-11-12T17:13:53;10.10;99.90
29403;DHT22;16382;59.942;30.472;2022-11-12T17:16:39;10.10;99.90
29403;DHT22;16382;59.942;30.472;2022-11-12T17:19:25;10.00;99.90
29403;DHT22;16382;59.942;30.472;2022-11-12T17:22:11;10.00;99.90
29403;DHT22;16382;59.942;30.472;2022-11-12T17:24:58;10.00;99.90
29403;DHT22;16382;59.942;30.472;2022-11-12T17:27:45;10.00;99.90
29403;DHT22;16382;59.942;30.472;2022-11-12T17:30:31;10.00;99.90
29403;DHT22;16382;59.942;30.472;2022-11-12T17:33:17;9.90;99.90
29403;DHT22;16382;59.942;30.472;2022-11-12T17:36:05;10.00;99.90
29403;DHT22;16382;59.942;30.472;2022-11-12T17:38:53;9.90;99.90
29403;DHT22;16382;59.942;30.472;2022-11-12T17:41:39;9.90;99.90
29403;DHT22;16382;59.942;30.472;2022-11-12T17:44:27;9.80;99.90
29403;DHT22;16382;59.942;30.472;2022-11-12T17:47:14;9.80;99.90
29403;DHT22;16382;59.942;30.472;2022-11-12T17:50:04;9.70;99.90
29403;DHT22;16382;59.942;30.472;2022-11-12T17:52:50;9.70;99.90